Elegance — PBGJ — position and weather

sailwx.info

Track history (hours):
 
Tides and Currents Weather Stations Pressure Air Temp Water Temp Dewpoint Dewpoint Depression Visibility Wind Speed Wind Dir Waves Ship Positions

Elegance

Last reported at 2018-Jun-24 05:00 UTC. Time now 2018-Jun-24 05:01 UTC.
Position N 52°23' E 004°55'.

Type: Cargo ship. MMSI: 244317000.

Date/timePositionNaut miles runAvg speedWind from/ knotsBaromVisibWave heightAir tempDewpointWater temp
2018-Jun-24 05:00N 52°23' E 004°55'0 0.0
2018-Jun-24 04:27N 52°23' E 004°55'1 1.3
2018-Jun-24 04:00N 52°23' E 004°56'2 3.7
2018-Jun-24 03:31N 52°24' E 004°53'3 6.2
2018-Jun-24 03:00N 52°25' E 004°49'3 6.6
2018-Jun-24 02:31N 52°26' E 004°43'3 6.5
2018-Jun-24 02:01N 52°28' E 004°39'1 2.9
2018-Jun-24 01:31N 52°28' E 004°37'0 0.5
2018-Jun-24 01:01N 52°28' E 004°36'3 5.8
2018-Jun-24 00:31N 52°28' E 004°31'612.7
2018-Jun-24 00:00N 52°29' E 004°21'815.6
2018-Jun-23 23:31N 52°31' E 004°09'815.2
2018-Jun-23 23:00N 52°38' E 004°04'815.3
2018-Jun-23 22:30N 52°45' E 003°59'815.2
2018-Jun-23 22:00N 52°52' E 003°59'815.3
2018-Jun-23 21:30N 52°59' E 004°05'816.5
2018-Jun-23 21:00N 53°04' E 004°15'816.6
2018-Jun-23 20:31N 53°10' E 004°25'816.7
2018-Jun-23 20:00N 53°18' E 004°30'816.6
2018-Jun-23 19:30N 53°26' E 004°33'816.5
2018-Jun-23 19:00N 53°34' E 004°37'816.3
2018-Jun-23 18:30N 53°42' E 004°41'1015.6
2018-Jun-23 17:52N 53°51' E 004°48'716.1
2018-Jun-23 17:25N 53°58' E 004°53'716.1
2018-Jun-23 16:58N 54°04' E 004°58'24113.1
2018-Jun-22 22:34N 58°04' E 005°23'1 9.9
2018-Jun-22 22:29N 58°05' E 005°23'510.1
2018-Jun-22 22:00N 58°10' E 005°23'510.1
2018-Jun-22 21:30N 58°15' E 005°20'510.3
2018-Jun-22 20:59N 58°20' E 005°16'510.1
2018-Jun-22 20:30N 58°24' E 005°12'5 9.9
2018-Jun-22 20:00N 58°29' E 005°12'5 9.7
2018-Jun-22 19:30N 58°34' E 005°13'510.5
2018-Jun-22 19:00N 58°39' E 005°14'5 9.8
2018-Jun-22 18:30N 58°44' E 005°16'713.3
2018-Jun-22 18:01N 58°49' E 005°23'612.6
2018-Jun-22 17:31N 58°54' E 005°31'815.8
2018-Jun-22 17:00N 59°02' E 005°32'511.0
2018-Jun-22 16:30N 58°60' E 005°42'2 2.8
2018-Jun-22 15:58N 58°58' E 005°44'0 0.0
2018-Jun-22 15:28N 58°58' E 005°44'0 0.0
2018-Jun-22 14:58N 58°58' E 005°44'0 0.0
2018-Jun-22 14:28N 58°58' E 005°44'0 0.0
2018-Jun-22 13:58N 58°58' E 005°44'0 0.0
2018-Jun-22 13:28N 58°58' E 005°44'0 0.0
2018-Jun-22 12:58N 58°58' E 005°44'0 0.0
2018-Jun-22 12:28N 58°58' E 005°44'0 0.0
2018-Jun-22 11:58N 58°58' E 005°44'0 0.0
2018-Jun-22 11:28N 58°58' E 005°44'0 0.0
2018-Jun-22 10:58N 58°58' E 005°44'0 0.0
2018-Jun-22 10:28N 58°58' E 005°44'0 0.0
2018-Jun-22 09:58N 58°58' E 005°44'0 0.0
2018-Jun-22 09:28N 58°58' E 005°44'0 0.0
2018-Jun-22 08:58N 58°58' E 005°44'0 0.0
2018-Jun-22 08:28N 58°58' E 005°44'0 0.0
2018-Jun-22 07:58N 58°58' E 005°44'0 0.0
2018-Jun-22 07:28N 58°58' E 005°44'0 0.0
2018-Jun-22 06:58N 58°58' E 005°44'0 0.0
2018-Jun-22 06:28N 58°58' E 005°44'0 0.0
2018-Jun-22 05:58N 58°58' E 005°44'0 0.0
2018-Jun-22 05:28N 58°58' E 005°44'0 0.1
2018-Jun-22 05:00N 58°58' E 005°44'1 1.8
2018-Jun-22 04:30N 58°59' E 005°43'510.1
2018-Jun-22 04:00N 59°03' E 005°35'611.7
2018-Jun-22 03:30N 59°06' E 005°26'612.5
2018-Jun-22 03:01N 59°03' E 005°15'713.0
2018-Jun-22 02:31N 59°05' E 005°03'816.3
2018-Jun-22 02:00N 59°12' E 004°54'816.0
2018-Jun-22 01:30N 59°19' E 004°46'816.1
2018-Jun-22 01:00N 59°27' E 004°44'815.9
2018-Jun-22 00:30N 59°35' E 004°41'816.2
2018-Jun-22 00:00N 59°43' E 004°38'3316.2
2018-Jun-21 21:57N 60°16' E 004°28'816.1
2018-Jun-21 21:29N 60°23' E 004°26'816.0
2018-Jun-21 21:00N 60°31' E 004°24'815.7
2018-Jun-21 20:30N 60°39' E 004°22'815.7
2018-Jun-21 20:00N 60°46' E 004°19'815.2
2018-Jun-21 19:31N 60°54' E 004°17'714.9
2018-Jun-21 19:01N 61°01' E 004°15'4715.0
2018-Jun-21 15:52N 61°48' E 004°24'615.6
2018-Jun-21 15:30N 61°53' E 004°29'815.6
2018-Jun-21 15:00N 62°00' E 004°36'815.3
2018-Jun-21 14:31N 62°07' E 004°43'815.3
2018-Jun-21 14:00N 62°13' E 004°53'815.3
2018-Jun-21 13:30N 62°20' E 005°00'815.2
2018-Jun-21 13:00N 62°27' E 005°08'815.9
2018-Jun-21 12:29N 62°34' E 005°17'815.8
2018-Jun-21 12:00N 62°41' E 005°24'815.6
2018-Jun-21 11:30N 62°48' E 005°33'34816.2
2018-Jun-20 14:02N 67°52' E 012°17'116.4
2018-Jun-20 14:00N 67°52' E 012°18'816.4
2018-Jun-20 13:30N 67°59' E 012°31'816.5
2018-Jun-20 13:00N 68°06' E 012°43'816.4
2018-Jun-20 12:30N 68°13' E 012°54'816.8
2018-Jun-20 12:00N 68°19' E 013°08'816.4
2018-Jun-20 11:30N 68°25' E 013°23'817.0
2018-Jun-20 11:00N 68°32' E 013°36'916.8
2018-Jun-20 10:30N 68°39' E 013°50'816.5
2018-Jun-20 10:00N 68°46' E 014°03'816.2
2018-Jun-20 09:30N 68°52' E 014°16'816.5
2018-Jun-20 09:00N 68°59' E 014°32'816.2
2018-Jun-20 08:30N 69°05' E 014°47'817.0
2018-Jun-20 08:00N 69°10' E 015°04'816.8
2018-Jun-20 07:30N 69°16' E 015°22'917.1
2018-Jun-20 07:00N 69°22' E 015°40'917.4
2018-Jun-20 06:30N 69°28' E 015°58'917.4
2018-Jun-20 06:00N 69°34' E 016°16'917.3
2018-Jun-20 05:30N 69°40' E 016°32'917.4
2018-Jun-20 04:59N 69°47' E 016°51'917.6
2018-Jun-20 04:29N 69°53' E 017°09'917.9
2018-Jun-20 04:00N 69°59' E 017°26'917.8
2018-Jun-20 03:30N 70°05' E 017°46'917.6
2018-Jun-20 03:00N 70°11' E 018°04'917.6
2018-Jun-20 02:30N 70°16' E 018°26'917.1
2018-Jun-20 01:59N 70°21' E 018°46'817.6
2018-Jun-20 01:31N 70°26' E 019°08'918.1
2018-Jun-20 01:00N 70°30' E 019°32'918.8
2018-Jun-20 00:30N 70°34' E 019°57'1019.2
2018-Jun-20 00:00N 70°39' E 020°22'2719.5
2018-Jun-19 22:37N 70°51' E 021°36'219.3
2018-Jun-19 22:30N 70°52' E 021°42'1019.5
2018-Jun-19 22:00N 70°56' E 022°09'1019.0
2018-Jun-19 21:30N 70°59' E 022°37'1018.6
2018-Jun-19 20:59N 71°03' E 023°04'918.0
2018-Jun-19 20:30N 71°08' E 023°27'918.2
2018-Jun-19 20:00N 71°11' E 023°53'917.4
2018-Jun-19 19:30N 71°12' E 024°20'817.4
2018-Jun-19 19:00N 71°13' E 024°46'917.4
2018-Jun-19 18:30N 71°13' E 025°13'917.2
2018-Jun-19 18:00N 71°13' E 025°39'917.4
2018-Jun-19 17:29N 71°09' E 026°05'817.0
2018-Jun-19 17:00N 71°02' E 026°16'713.2
2018-Jun-19 16:30N 70°57' E 026°01'2 4.6
2018-Jun-19 16:00N 70°59' E 025°57'0 0.2
2018-Jun-19 15:30N 70°59' E 025°57'0 0.0
2018-Jun-19 15:00N 70°59' E 025°57'0 0.0
2018-Jun-19 14:30N 70°59' E 025°57'0 0.1
2018-Jun-19 14:00N 70°59' E 025°57'0 0.0
2018-Jun-19 13:30N 70°59' E 025°57'0 0.0
2018-Jun-19 13:00N 70°59' E 025°57'0 0.0
2018-Jun-19 12:30N 70°59' E 025°57'0 0.0
2018-Jun-19 11:57N 70°59' E 025°57'0 0.0
2018-Jun-19 11:30N 70°59' E 025°57'0 0.0
2018-Jun-19 11:00N 70°59' E 025°57'0 0.0
2018-Jun-19 10:30N 70°59' E 025°57'0 0.0
2018-Jun-19 10:00N 70°59' E 025°57'0 0.0
2018-Jun-19 09:30N 70°59' E 025°57'0 0.0
2018-Jun-19 09:00N 70°59' E 025°57'0 0.1
2018-Jun-19 08:30N 70°59' E 025°57'0 0.0
2018-Jun-19 08:00N 70°59' E 025°57'0 0.1
2018-Jun-19 07:30N 70°59' E 025°57'3 5.3
2018-Jun-19 07:00N 70°58' E 026°04'611.2
2018-Jun-19 06:29N 71°00' E 026°19'815.3
2018-Jun-19 05:59N 71°08' E 026°14'817.0
2018-Jun-19 05:31N 71°12' E 025°53'816.5
2018-Jun-19 05:00N 71°13' E 025°26'916.9
2018-Jun-19 04:29N 71°13' E 024°59'918.8
2018-Jun-19 04:00N 71°13' E 024°32'1019.9
2018-Jun-19 03:30N 71°12' E 024°01'1020.1
2018-Jun-19 03:00N 71°08' E 023°32'1020.0
2018-Jun-19 02:30N 71°04' E 023°04'1019.7
2018-Jun-19 02:00N 71°00' E 022°36'918.5
2018-Jun-19 01:30N 70°56' E 022°10'1018.5
2018-Jun-19 00:59N 70°52' E 021°43'2718.4
2018-Jun-18 23:32N 70°41' E 020°30'118.5
2018-Jun-18 23:30N 70°41' E 020°28'1018.7
2018-Jun-18 22:59N 70°36' E 020°02'918.6
2018-Jun-18 22:30N 70°32' E 019°39'918.4
2018-Jun-18 21:59N 70°27' E 019°14'919.1
2018-Jun-18 21:30N 70°22' E 018°50'1019.3
2018-Jun-18 21:00N 70°17' E 018°27'1019.5
2018-Jun-18 20:30N 70°10' E 018°06'917.2
2018-Jun-18 19:59N 70°05' E 017°46'816.4
2018-Jun-18 19:30N 69°59' E 017°28'916.4
2018-Jun-18 18:59N 69°53' E 017°10'816.2
2018-Jun-18 18:30N 69°48' E 016°54'916.7
2018-Jun-18 18:00N 69°43' E 016°35'917.4
2018-Jun-18 17:29N 69°36' E 016°16'918.2
2018-Jun-18 17:00N 69°30' E 015°58'918.1
2018-Jun-18 16:30N 69°24' E 015°40'918.0
2018-Jun-18 15:59N 69°18' E 015°21'918.0
2018-Jun-18 15:30N 69°12' E 015°04'918.0
2018-Jun-18 15:00N 69°05' E 014°47'918.0
2018-Jun-18 14:30N 68°59' E 014°29'918.1
2018-Jun-18 13:59N 68°52' E 014°11'918.2
2018-Jun-18 13:30N 68°45' E 013°55'918.2
2018-Jun-18 12:59N 68°38' E 013°39'918.2
2018-Jun-18 12:29N 68°31' E 013°23'918.2
2018-Jun-18 11:59N 68°23' E 013°09'918.3
2018-Jun-18 11:30N 68°16' E 012°54'918.2
2018-Jun-18 11:00N 68°09' E 012°40'918.3
2018-Jun-18 10:30N 68°02' E 012°25'28318.4
2018-Jun-17 19:05N 63°45' E 007°35'218.3
2018-Jun-17 19:00N 63°43' E 007°34'918.3
2018-Jun-17 18:30N 63°34' E 007°34'918.5
2018-Jun-17 18:00N 63°25' E 007°34'918.0
2018-Jun-17 17:30N 63°16' E 007°38'612.0
2018-Jun-17 17:01N 63°11' E 007°44'918.0
2018-Jun-17 16:31N 63°05' E 007°29'816.8
2018-Jun-17 16:01N 63°03' E 007°11'917.8
2018-Jun-17 15:30N 62°59' E 006°53'714.2
2018-Jun-17 15:01N 62°52' E 006°57'714.8
2018-Jun-17 14:30N 62°45' E 006°57'510.8
2018-Jun-17 14:00N 62°44' E 007°09'0 0.4
2018-Jun-17 13:30N 62°44' E 007°09'0 0.0
2018-Jun-17 13:00N 62°44' E 007°09'0 0.0
2018-Jun-17 12:30N 62°44' E 007°09'0 0.0
2018-Jun-17 12:00N 62°44' E 007°09'0 0.0
2018-Jun-17 11:30N 62°44' E 007°09'0 0.0
2018-Jun-17 11:00N 62°44' E 007°09'0 0.0
2018-Jun-17 10:30N 62°44' E 007°09'0 0.0
2018-Jun-17 10:00N 62°44' E 007°09'0 0.0
2018-Jun-17 09:30N 62°44' E 007°09'0 0.0
2018-Jun-17 09:00N 62°44' E 007°09'0 0.0
2018-Jun-17 08:30N 62°44' E 007°09'0 0.0
2018-Jun-17 08:00N 62°44' E 007°09'0 0.0
2018-Jun-17 07:30N 62°44' E 007°09'0 0.0
2018-Jun-17 07:00N 62°44' E 007°09'0 0.0
2018-Jun-17 06:30N 62°44' E 007°09'0 0.0
2018-Jun-17 06:00N 62°44' E 007°09'0 0.0
2018-Jun-17 05:30N 62°44' E 007°09'0 0.0
2018-Jun-17 05:00N 62°44' E 007°09'0 0.1
2018-Jun-17 04:29N 62°44' E 007°09'2 3.6
2018-Jun-17 04:00N 62°44' E 007°06'5 9.5
2018-Jun-17 03:30N 62°42' E 006°56'510.1
2018-Jun-17 03:00N 62°40' E 006°46'5 9.7
2018-Jun-17 02:29N 62°38' E 006°36'510.3
2018-Jun-17 02:00N 62°38' E 006°25'510.1
2018-Jun-17 01:30N 62°38' E 006°14'3 6.7
2018-Jun-17 01:00N 62°37' E 006°07'611.7
2018-Jun-17 00:30N 62°32' E 006°09'4 8.3
2018-Jun-17 00:00N 62°28' E 006°03'5 9.4
2018-Jun-16 23:29N 62°23' E 006°06'713.2
2018-Jun-16 22:59N 62°24' E 006°20'715.3
2018-Jun-16 22:30N 62°26' E 006°35'714.5
2018-Jun-16 22:00N 62°27' E 006°50'714.1
2018-Jun-16 21:30N 62°20' E 006°57'712.6
2018-Jun-16 20:59N 62°14' E 007°01'713.4
2018-Jun-16 20:29N 62°07' E 006°57'4 8.5
2018-Jun-16 19:59N 62°06' E 007°05'2 3.9
2018-Jun-16 19:29N 62°07' E 007°08'2 3.1
2018-Jun-16 18:59N 62°06' E 007°11'0 0.1
2018-Jun-16 18:30N 62°06' E 007°11'0 0.0
2018-Jun-16 18:00N 62°06' E 007°11'0 0.2
2018-Jun-16 17:28N 62°06' E 007°11'0 0.0
2018-Jun-16 16:58N 62°06' E 007°11'0 0.0
2018-Jun-16 16:28N 62°06' E 007°11'0 0.0
2018-Jun-16 15:58N 62°06' E 007°11'0 0.0
2018-Jun-16 15:28N 62°06' E 007°11'0 0.0
2018-Jun-16 14:58N 62°06' E 007°11'0 0.0
2018-Jun-16 14:28N 62°06' E 007°11'0 0.0
2018-Jun-16 13:58N 62°06' E 007°11'0 0.0
2018-Jun-16 13:28N 62°06' E 007°11'0 0.0
2018-Jun-16 12:58N 62°06' E 007°11'0 0.0
2018-Jun-16 12:28N 62°06' E 007°11'0 0.0
2018-Jun-16 11:58N 62°06' E 007°11'0 0.0
2018-Jun-16 11:28N 62°06' E 007°11'0 0.0
2018-Jun-16 10:58N 62°06' E 007°11'0 0.0
2018-Jun-16 10:28N 62°06' E 007°11'0 0.0
2018-Jun-16 09:58N 62°06' E 007°11'0 0.0
2018-Jun-16 09:28N 62°06' E 007°11'0 0.0
2018-Jun-16 08:58N 62°06' E 007°11'0 0.1
2018-Jun-16 08:30N 62°06' E 007°11'1 2.4
2018-Jun-16 08:00N 62°07' E 007°09'4 8.6
2018-Jun-16 07:29N 62°06' E 007°01'510.6
2018-Jun-16 07:00N 62°11' E 007°02'815.2
2018-Jun-16 06:30N 62°18' E 006°59'814.2
2018-Jun-16 05:59N 62°26' E 006°55'715.5
2018-Jun-16 05:30N 62°27' E 006°39'815.7
2018-Jun-16 05:00N 62°24' E 006°23'816.4
2018-Jun-16 04:30N 62°23' E 006°06'816.7
2018-Jun-16 04:00N 62°27' E 005°50'918.1
2018-Jun-16 03:30N 62°27' E 005°30'917.5
2018-Jun-16 03:00N 62°25' E 005°11'917.6
2018-Jun-16 02:30N 62°18' E 004°60'917.7
2018-Jun-16 02:00N 62°11' E 004°49'917.7
2018-Jun-16 01:30N 62°03' E 004°39'917.9
2018-Jun-16 01:00N 61°55' E 004°31'917.5
2018-Jun-16 00:30N 61°46' E 004°26'917.9
2018-Jun-16 00:00N 61°38' E 004°22'918.1
2018-Jun-15 23:30N 61°29' E 004°22'918.0
2018-Jun-15 23:00N 61°20' E 004°23'815.9
2018-Jun-15 22:30N 61°14' E 004°35'917.7
2018-Jun-15 22:00N 61°14' E 004°53'714.5
2018-Jun-15 21:30N 61°09' E 005°05'816.5
2018-Jun-15 21:00N 61°04' E 005°19'816.8
2018-Jun-15 20:30N 61°06' E 005°36'918.0
2018-Jun-15 20:00N 61°08' E 005°54'918.3
2018-Jun-15 19:30N 61°07' E 006°13'917.6
2018-Jun-15 19:00N 61°07' E 006°30'713.4
2018-Jun-15 18:30N 61°11' E 006°41'815.8
2018-Jun-15 18:00N 61°07' E 006°56'815.9
2018-Jun-15 17:30N 60°60' E 007°03'713.7
2018-Jun-15 16:58N 60°53' E 007°09'2 3.3
2018-Jun-15 16:30N 60°52' E 007°07'0 0.0
2018-Jun-15 16:00N 60°52' E 007°07'0 0.0
2018-Jun-15 15:30N 60°52' E 007°07'0 0.0
2018-Jun-15 15:00N 60°52' E 007°07'0 0.0
2018-Jun-15 14:30N 60°52' E 007°07'0 0.0
2018-Jun-15 14:00N 60°52' E 007°07'0 0.0
2018-Jun-15 13:30N 60°52' E 007°07'0 0.0
2018-Jun-15 13:00N 60°52' E 007°07'0 0.0
2018-Jun-15 12:30N 60°52' E 007°07'0 0.0
2018-Jun-15 12:00N 60°52' E 007°07'0 0.0
2018-Jun-15 11:30N 60°52' E 007°07'0 0.0
2018-Jun-15 11:00N 60°52' E 007°07'0 0.0
2018-Jun-15 10:30N 60°52' E 007°07'0 0.0
2018-Jun-15 10:00N 60°52' E 007°07'0 0.0
2018-Jun-15 09:30N 60°52' E 007°07'0 0.0
2018-Jun-15 08:57N 60°52' E 007°07'0 0.0
2018-Jun-15 08:30N 60°52' E 007°07'0 0.0
2018-Jun-15 08:00N 60°52' E 007°07'0 0.0
2018-Jun-15 07:30N 60°52' E 007°07'0 0.0
2018-Jun-15 07:00N 60°52' E 007°07'0 0.0
2018-Jun-15 06:30N 60°52' E 007°07'0 0.0
2018-Jun-15 06:00N 60°52' E 007°07'0 0.0
2018-Jun-15 05:30N 60°52' E 007°07'0 0.0
2018-Jun-15 05:00N 60°52' E 007°07'1 1.6
2018-Jun-15 04:30N 60°52' E 007°08'4 8.8
2018-Jun-15 04:00N 60°57' E 007°09'5 9.2
2018-Jun-15 03:30N 61°00' E 007°03'5 9.2
2018-Jun-15 03:00N 61°05' E 007°00'5 9.4
2018-Jun-15 02:29N 61°08' E 006°53'5 9.3
2018-Jun-15 02:00N 61°10' E 006°45'4 8.5
2018-Jun-15 01:30N 61°10' E 006°36'5 9.2
2018-Jun-15 01:00N 61°07' E 006°30'5 9.3
2018-Jun-15 00:29N 61°06' E 006°20'5 9.5
2018-Jun-15 00:00N 61°08' E 006°11'5 9.6
2018-Jun-14 23:28N 61°08' E 006°01'5 9.9
2018-Jun-14 23:00N 61°08' E 005°51'5 9.9
2018-Jun-14 22:30N 61°07' E 005°41'510.0
2018-Jun-14 22:00N 61°05' E 005°32'5 9.6
2018-Jun-14 21:30N 61°04' E 005°22'510.0
2018-Jun-14 21:00N 61°06' E 005°13'5 9.2
2018-Jun-14 20:30N 61°05' E 005°03'510.1
2018-Jun-14 19:59N 61°02' E 004°55'611.7
2018-Jun-14 19:30N 60°59' E 004°45'713.1
2018-Jun-14 18:59N 60°53' E 004°40'510.0
2018-Jun-14 18:30N 60°48' E 004°44'510.0
2018-Jun-14 18:00N 60°44' E 004°48'510.0
2018-Jun-14 17:30N 60°39' E 004°52'510.0
2018-Jun-14 17:00N 60°34' E 004°55'510.1
2018-Jun-14 16:30N 60°30' E 004°59'510.4
2018-Jun-14 16:00N 60°25' E 005°04'5 9.7
2018-Jun-14 15:30N 60°24' E 005°14'2 4.6
2018-Jun-14 14:59N 60°23' E 005°18'0 0.0
2018-Jun-14 14:29N 60°23' E 005°18'0 0.0
2018-Jun-14 13:59N 60°23' E 005°18'0 0.0
2018-Jun-14 13:29N 60°23' E 005°18'0 0.0
2018-Jun-14 12:59N 60°23' E 005°18'0 0.0
2018-Jun-14 12:29N 60°23' E 005°18'0 0.0
2018-Jun-14 11:59N 60°23' E 005°18'0 0.0
2018-Jun-14 11:29N 60°23' E 005°18'0 0.0
2018-Jun-14 10:59N 60°23' E 005°18'0 0.0
2018-Jun-14 10:29N 60°23' E 005°18'0 0.0
2018-Jun-14 09:59N 60°23' E 005°18'0 0.0
2018-Jun-14 09:29N 60°23' E 005°18'0 0.0
2018-Jun-14 08:59N 60°23' E 005°18'0 0.0
2018-Jun-14 08:29N 60°23' E 005°18'0 0.0
2018-Jun-14 07:59N 60°23' E 005°18'0 0.0
2018-Jun-14 07:29N 60°23' E 005°18'0 0.0
2018-Jun-14 06:59N 60°23' E 005°18'0 0.0
2018-Jun-14 06:29N 60°23' E 005°18'0 0.0
2018-Jun-14 05:59N 60°23' E 005°18'0 0.3
2018-Jun-14 05:30N 60°24' E 005°18'  
Track history (hours):
 
Tides and Currents Weather Stations Pressure Air Temp Water Temp Dewpoint Dewpoint Depression Visibility Wind Speed Wind Dir Waves Ship Positions

Elegance

Last reported at 2018-Jun-24 05:00 UTC. Time now 2018-Jun-24 05:01 UTC.
Position N 52°23' E 004°55'.

Type: Cargo ship. MMSI: 244317000.

Date/timePositionNaut miles runAvg speedWind from/ knotsBaromVisibWave heightAir tempDewpointWater temp
2018-Jun-24 05:00N 52°23' E 004°55'0 0.0
2018-Jun-24 04:27N 52°23' E 004°55'1 1.3
2018-Jun-24 04:00N 52°23' E 004°56'2 3.7
2018-Jun-24 03:31N 52°24' E 004°53'3 6.2
2018-Jun-24 03:00N 52°25' E 004°49'3 6.6
2018-Jun-24 02:31N 52°26' E 004°43'3 6.5
2018-Jun-24 02:01N 52°28' E 004°39'1 2.9
2018-Jun-24 01:31N 52°28' E 004°37'0 0.5
2018-Jun-24 01:01N 52°28' E 004°36'3 5.8
2018-Jun-24 00:31N 52°28' E 004°31'612.7
2018-Jun-24 00:00N 52°29' E 004°21'815.6
2018-Jun-23 23:31N 52°31' E 004°09'815.2
2018-Jun-23 23:00N 52°38' E 004°04'815.3
2018-Jun-23 22:30N 52°45' E 003°59'815.2
2018-Jun-23 22:00N 52°52' E 003°59'815.3
2018-Jun-23 21:30N 52°59' E 004°05'816.5
2018-Jun-23 21:00N 53°04' E 004°15'816.6
2018-Jun-23 20:31N 53°10' E 004°25'816.7
2018-Jun-23 20:00N 53°18' E 004°30'816.6
2018-Jun-23 19:30N 53°26' E 004°33'816.5
2018-Jun-23 19:00N 53°34' E 004°37'816.3
2018-Jun-23 18:30N 53°42' E 004°41'1015.6
2018-Jun-23 17:52N 53°51' E 004°48'716.1
2018-Jun-23 17:25N 53°58' E 004°53'716.1
2018-Jun-23 16:58N 54°04' E 004°58'24113.1
2018-Jun-22 22:34N 58°04' E 005°23'1 9.9
2018-Jun-22 22:29N 58°05' E 005°23'510.1
2018-Jun-22 22:00N 58°10' E 005°23'510.1
2018-Jun-22 21:30N 58°15' E 005°20'510.3
2018-Jun-22 20:59N 58°20' E 005°16'510.1
2018-Jun-22 20:30N 58°24' E 005°12'5 9.9
2018-Jun-22 20:00N 58°29' E 005°12'5 9.7
2018-Jun-22 19:30N 58°34' E 005°13'510.5
2018-Jun-22 19:00N 58°39' E 005°14'5 9.8
2018-Jun-22 18:30N 58°44' E 005°16'713.3
2018-Jun-22 18:01N 58°49' E 005°23'612.6
2018-Jun-22 17:31N 58°54' E 005°31'815.8
2018-Jun-22 17:00N 59°02' E 005°32'511.0
2018-Jun-22 16:30N 58°60' E 005°42'2 2.8
2018-Jun-22 15:58N 58°58' E 005°44'0 0.0
2018-Jun-22 15:28N 58°58' E 005°44'0 0.0
2018-Jun-22 14:58N 58°58' E 005°44'0 0.0
2018-Jun-22 14:28N 58°58' E 005°44'0 0.0
2018-Jun-22 13:58N 58°58' E 005°44'0 0.0
2018-Jun-22 13:28N 58°58' E 005°44'0 0.0
2018-Jun-22 12:58N 58°58' E 005°44'0 0.0
2018-Jun-22 12:28N 58°58' E 005°44'0 0.0
2018-Jun-22 11:58N 58°58' E 005°44'0 0.0
2018-Jun-22 11:28N 58°58' E 005°44'0 0.0
2018-Jun-22 10:58N 58°58' E 005°44'0 0.0
2018-Jun-22 10:28N 58°58' E 005°44'0 0.0
2018-Jun-22 09:58N 58°58' E 005°44'0 0.0
2018-Jun-22 09:28N 58°58' E 005°44'0 0.0
2018-Jun-22 08:58N 58°58' E 005°44'0 0.0
2018-Jun-22 08:28N 58°58' E 005°44'0 0.0
2018-Jun-22 07:58N 58°58' E 005°44'0 0.0
2018-Jun-22 07:28N 58°58' E 005°44'0 0.0
2018-Jun-22 06:58N 58°58' E 005°44'0 0.0
2018-Jun-22 06:28N 58°58' E 005°44'0 0.0
2018-Jun-22 05:58N 58°58' E 005°44'0 0.0
2018-Jun-22 05:28N 58°58' E 005°44'0 0.1
2018-Jun-22 05:00N 58°58' E 005°44'1 1.8
2018-Jun-22 04:30N 58°59' E 005°43'510.1
2018-Jun-22 04:00N 59°03' E 005°35'611.7
2018-Jun-22 03:30N 59°06' E 005°26'612.5
2018-Jun-22 03:01N 59°03' E 005°15'713.0
2018-Jun-22 02:31N 59°05' E 005°03'816.3
2018-Jun-22 02:00N 59°12' E 004°54'816.0
2018-Jun-22 01:30N 59°19' E 004°46'816.1
2018-Jun-22 01:00N 59°27' E 004°44'815.9
2018-Jun-22 00:30N 59°35' E 004°41'816.2
2018-Jun-22 00:00N 59°43' E 004°38'3316.2
2018-Jun-21 21:57N 60°16' E 004°28'816.1
2018-Jun-21 21:29N 60°23' E 004°26'816.0
2018-Jun-21 21:00N 60°31' E 004°24'815.7
2018-Jun-21 20:30N 60°39' E 004°22'815.7
2018-Jun-21 20:00N 60°46' E 004°19'815.2
2018-Jun-21 19:31N 60°54' E 004°17'714.9
2018-Jun-21 19:01N 61°01' E 004°15'4715.0
2018-Jun-21 15:52N 61°48' E 004°24'615.6
2018-Jun-21 15:30N 61°53' E 004°29'815.6
2018-Jun-21 15:00N 62°00' E 004°36'815.3
2018-Jun-21 14:31N 62°07' E 004°43'815.3
2018-Jun-21 14:00N 62°13' E 004°53'815.3
2018-Jun-21 13:30N 62°20' E 005°00'815.2
2018-Jun-21 13:00N 62°27' E 005°08'815.9
2018-Jun-21 12:29N 62°34' E 005°17'815.8
2018-Jun-21 12:00N 62°41' E 005°24'815.6
2018-Jun-21 11:30N 62°48' E 005°33'34816.2
2018-Jun-20 14:02N 67°52' E 012°17'116.4
2018-Jun-20 14:00N 67°52' E 012°18'816.4
2018-Jun-20 13:30N 67°59' E 012°31'816.5
2018-Jun-20 13:00N 68°06' E 012°43'816.4
2018-Jun-20 12:30N 68°13' E 012°54'816.8
2018-Jun-20 12:00N 68°19' E 013°08'816.4
2018-Jun-20 11:30N 68°25' E 013°23'817.0
2018-Jun-20 11:00N 68°32' E 013°36'916.8
2018-Jun-20 10:30N 68°39' E 013°50'816.5
2018-Jun-20 10:00N 68°46' E 014°03'816.2
2018-Jun-20 09:30N 68°52' E 014°16'816.5
2018-Jun-20 09:00N 68°59' E 014°32'816.2
2018-Jun-20 08:30N 69°05' E 014°47'817.0
2018-Jun-20 08:00N 69°10' E 015°04'816.8
2018-Jun-20 07:30N 69°16' E 015°22'917.1
2018-Jun-20 07:00N 69°22' E 015°40'917.4
2018-Jun-20 06:30N 69°28' E 015°58'917.4
2018-Jun-20 06:00N 69°34' E 016°16'917.3
2018-Jun-20 05:30N 69°40' E 016°32'917.4
2018-Jun-20 04:59N 69°47' E 016°51'917.6
2018-Jun-20 04:29N 69°53' E 017°09'917.9
2018-Jun-20 04:00N 69°59' E 017°26'917.8
2018-Jun-20 03:30N 70°05' E 017°46'917.6
2018-Jun-20 03:00N 70°11' E 018°04'917.6
2018-Jun-20 02:30N 70°16' E 018°26'917.1
2018-Jun-20 01:59N 70°21' E 018°46'817.6
2018-Jun-20 01:31N 70°26' E 019°08'918.1
2018-Jun-20 01:00N 70°30' E 019°32'918.8
2018-Jun-20 00:30N 70°34' E 019°57'1019.2
2018-Jun-20 00:00N 70°39' E 020°22'2719.5
2018-Jun-19 22:37N 70°51' E 021°36'219.3
2018-Jun-19 22:30N 70°52' E 021°42'1019.5
2018-Jun-19 22:00N 70°56' E 022°09'1019.0
2018-Jun-19 21:30N 70°59' E 022°37'1018.6
2018-Jun-19 20:59N 71°03' E 023°04'918.0
2018-Jun-19 20:30N 71°08' E 023°27'918.2
2018-Jun-19 20:00N 71°11' E 023°53'917.4
2018-Jun-19 19:30N 71°12' E 024°20'817.4
2018-Jun-19 19:00N 71°13' E 024°46'917.4
2018-Jun-19 18:30N 71°13' E 025°13'917.2
2018-Jun-19 18:00N 71°13' E 025°39'917.4
2018-Jun-19 17:29N 71°09' E 026°05'817.0
2018-Jun-19 17:00N 71°02' E 026°16'713.2
2018-Jun-19 16:30N 70°57' E 026°01'2 4.6
2018-Jun-19 16:00N 70°59' E 025°57'0 0.2
2018-Jun-19 15:30N 70°59' E 025°57'0 0.0
2018-Jun-19 15:00N 70°59' E 025°57'0 0.0
2018-Jun-19 14:30N 70°59' E 025°57'0 0.1
2018-Jun-19 14:00N 70°59' E 025°57'0 0.0
2018-Jun-19 13:30N 70°59' E 025°57'0 0.0
2018-Jun-19 13:00N 70°59' E 025°57'0 0.0
2018-Jun-19 12:30N 70°59' E 025°57'0 0.0
2018-Jun-19 11:57N 70°59' E 025°57'0 0.0
2018-Jun-19 11:30N 70°59' E 025°57'0 0.0
2018-Jun-19 11:00N 70°59' E 025°57'0 0.0
2018-Jun-19 10:30N 70°59' E 025°57'0 0.0
2018-Jun-19 10:00N 70°59' E 025°57'0 0.0
2018-Jun-19 09:30N 70°59' E 025°57'0 0.0
2018-Jun-19 09:00N 70°59' E 025°57'0 0.1
2018-Jun-19 08:30N 70°59' E 025°57'0 0.0
2018-Jun-19 08:00N 70°59' E 025°57'0 0.1
2018-Jun-19 07:30N 70°59' E 025°57'3 5.3
2018-Jun-19 07:00N 70°58' E 026°04'611.2
2018-Jun-19 06:29N 71°00' E 026°19'815.3
2018-Jun-19 05:59N 71°08' E 026°14'817.0
2018-Jun-19 05:31N 71°12' E 025°53'816.5
2018-Jun-19 05:00N 71°13' E 025°26'916.9
2018-Jun-19 04:29N 71°13' E 024°59'918.8
2018-Jun-19 04:00N 71°13' E 024°32'1019.9
2018-Jun-19 03:30N 71°12' E 024°01'1020.1
2018-Jun-19 03:00N 71°08' E 023°32'1020.0
2018-Jun-19 02:30N 71°04' E 023°04'1019.7
2018-Jun-19 02:00N 71°00' E 022°36'918.5
2018-Jun-19 01:30N 70°56' E 022°10'1018.5
2018-Jun-19 00:59N 70°52' E 021°43'2718.4
2018-Jun-18 23:32N 70°41' E 020°30'118.5
2018-Jun-18 23:30N 70°41' E 020°28'1018.7
2018-Jun-18 22:59N 70°36' E 020°02'918.6
2018-Jun-18 22:30N 70°32' E 019°39'918.4
2018-Jun-18 21:59N 70°27' E 019°14'919.1
2018-Jun-18 21:30N 70°22' E 018°50'1019.3
2018-Jun-18 21:00N 70°17' E 018°27'1019.5
2018-Jun-18 20:30N 70°10' E 018°06'917.2
2018-Jun-18 19:59N 70°05' E 017°46'816.4
2018-Jun-18 19:30N 69°59' E 017°28'916.4
2018-Jun-18 18:59N 69°53' E 017°10'816.2
2018-Jun-18 18:30N 69°48' E 016°54'916.7
2018-Jun-18 18:00N 69°43' E 016°35'917.4
2018-Jun-18 17:29N 69°36' E 016°16'918.2
2018-Jun-18 17:00N 69°30' E 015°58'918.1
2018-Jun-18 16:30N 69°24' E 015°40'918.0
2018-Jun-18 15:59N 69°18' E 015°21'918.0
2018-Jun-18 15:30N 69°12' E 015°04'918.0
2018-Jun-18 15:00N 69°05' E 014°47'918.0
2018-Jun-18 14:30N 68°59' E 014°29'918.1
2018-Jun-18 13:59N 68°52' E 014°11'918.2
2018-Jun-18 13:30N 68°45' E 013°55'918.2
2018-Jun-18 12:59N 68°38' E 013°39'918.2
2018-Jun-18 12:29N 68°31' E 013°23'918.2
2018-Jun-18 11:59N 68°23' E 013°09'918.3
2018-Jun-18 11:30N 68°16' E 012°54'918.2
2018-Jun-18 11:00N 68°09' E 012°40'918.3
2018-Jun-18 10:30N 68°02' E 012°25'28318.4
2018-Jun-17 19:05N 63°45' E 007°35'218.3
2018-Jun-17 19:00N 63°43' E 007°34'918.3
2018-Jun-17 18:30N 63°34' E 007°34'918.5
2018-Jun-17 18:00N 63°25' E 007°34'918.0
2018-Jun-17 17:30N 63°16' E 007°38'612.0
2018-Jun-17 17:01N 63°11' E 007°44'918.0
2018-Jun-17 16:31N 63°05' E 007°29'816.8
2018-Jun-17 16:01N 63°03' E 007°11'917.8
2018-Jun-17 15:30N 62°59' E 006°53'714.2
2018-Jun-17 15:01N 62°52' E 006°57'714.8
2018-Jun-17 14:30N 62°45' E 006°57'510.8
2018-Jun-17 14:00N 62°44' E 007°09'0 0.4
2018-Jun-17 13:30N 62°44' E 007°09'0 0.0
2018-Jun-17 13:00N 62°44' E 007°09'0 0.0
2018-Jun-17 12:30N 62°44' E 007°09'0 0.0
2018-Jun-17 12:00N 62°44' E 007°09'0 0.0
2018-Jun-17 11:30N 62°44' E 007°09'0 0.0
2018-Jun-17 11:00N 62°44' E 007°09'0 0.0
2018-Jun-17 10:30N 62°44' E 007°09'0 0.0
2018-Jun-17 10:00N 62°44' E 007°09'0 0.0
2018-Jun-17 09:30N 62°44' E 007°09'0 0.0
2018-Jun-17 09:00N 62°44' E 007°09'0 0.0
2018-Jun-17 08:30N 62°44' E 007°09'0 0.0
2018-Jun-17 08:00N 62°44' E 007°09'0 0.0
2018-Jun-17 07:30N 62°44' E 007°09'0 0.0
2018-Jun-17 07:00N 62°44' E 007°09'0 0.0
2018-Jun-17 06:30N 62°44' E 007°09'0 0.0
2018-Jun-17 06:00N 62°44' E 007°09'0 0.0
2018-Jun-17 05:30N 62°44' E 007°09'0 0.0
2018-Jun-17 05:00N 62°44' E 007°09'0 0.1
2018-Jun-17 04:29N 62°44' E 007°09'2 3.6
2018-Jun-17 04:00N 62°44' E 007°06'5 9.5
2018-Jun-17 03:30N 62°42' E 006°56'510.1
2018-Jun-17 03:00N 62°40' E 006°46'5 9.7
2018-Jun-17 02:29N 62°38' E 006°36'510.3
2018-Jun-17 02:00N 62°38' E 006°25'510.1
2018-Jun-17 01:30N 62°38' E 006°14'3 6.7
2018-Jun-17 01:00N 62°37' E 006°07'611.7
2018-Jun-17 00:30N 62°32' E 006°09'4 8.3
2018-Jun-17 00:00N 62°28' E 006°03'5 9.4
2018-Jun-16 23:29N 62°23' E 006°06'713.2
2018-Jun-16 22:59N 62°24' E 006°20'715.3
2018-Jun-16 22:30N 62°26' E 006°35'714.5
2018-Jun-16 22:00N 62°27' E 006°50'714.1
2018-Jun-16 21:30N 62°20' E 006°57'712.6
2018-Jun-16 20:59N 62°14' E 007°01'713.4
2018-Jun-16 20:29N 62°07' E 006°57'4 8.5
2018-Jun-16 19:59N 62°06' E 007°05'2 3.9
2018-Jun-16 19:29N 62°07' E 007°08'2 3.1
2018-Jun-16 18:59N 62°06' E 007°11'0 0.1
2018-Jun-16 18:30N 62°06' E 007°11'0 0.0
2018-Jun-16 18:00N 62°06' E 007°11'0 0.2
2018-Jun-16 17:28N 62°06' E 007°11'0 0.0
2018-Jun-16 16:58N 62°06' E 007°11'0 0.0
2018-Jun-16 16:28N 62°06' E 007°11'0 0.0
2018-Jun-16 15:58N 62°06' E 007°11'0 0.0
2018-Jun-16 15:28N 62°06' E 007°11'0 0.0
2018-Jun-16 14:58N 62°06' E 007°11'0 0.0
2018-Jun-16 14:28N 62°06' E 007°11'0 0.0
2018-Jun-16 13:58N 62°06' E 007°11'0 0.0
2018-Jun-16 13:28N 62°06' E 007°11'0 0.0
2018-Jun-16 12:58N 62°06' E 007°11'0 0.0
2018-Jun-16 12:28N 62°06' E 007°11'0 0.0
2018-Jun-16 11:58N 62°06' E 007°11'0 0.0
2018-Jun-16 11:28N 62°06' E 007°11'0 0.0
2018-Jun-16 10:58N 62°06' E 007°11'0 0.0
2018-Jun-16 10:28N 62°06' E 007°11'0 0.0
2018-Jun-16 09:58N 62°06' E 007°11'0 0.0
2018-Jun-16 09:28N 62°06' E 007°11'0 0.0
2018-Jun-16 08:58N 62°06' E 007°11'0 0.1
2018-Jun-16 08:30N 62°06' E 007°11'1 2.4
2018-Jun-16 08:00N 62°07' E 007°09'4 8.6
2018-Jun-16 07:29N 62°06' E 007°01'510.6
2018-Jun-16 07:00N 62°11' E 007°02'815.2
2018-Jun-16 06:30N 62°18' E 006°59'814.2
2018-Jun-16 05:59N 62°26' E 006°55'715.5
2018-Jun-16 05:30N 62°27' E 006°39'815.7
2018-Jun-16 05:00N 62°24' E 006°23'816.4
2018-Jun-16 04:30N 62°23' E 006°06'816.7
2018-Jun-16 04:00N 62°27' E 005°50'918.1
2018-Jun-16 03:30N 62°27' E 005°30'917.5
2018-Jun-16 03:00N 62°25' E 005°11'917.6
2018-Jun-16 02:30N 62°18' E 004°60'917.7
2018-Jun-16 02:00N 62°11' E 004°49'917.7
2018-Jun-16 01:30N 62°03' E 004°39'917.9
2018-Jun-16 01:00N 61°55' E 004°31'917.5
2018-Jun-16 00:30N 61°46' E 004°26'917.9
2018-Jun-16 00:00N 61°38' E 004°22'918.1
2018-Jun-15 23:30N 61°29' E 004°22'918.0
2018-Jun-15 23:00N 61°20' E 004°23'815.9
2018-Jun-15 22:30N 61°14' E 004°35'917.7
2018-Jun-15 22:00N 61°14' E 004°53'714.5
2018-Jun-15 21:30N 61°09' E 005°05'816.5
2018-Jun-15 21:00N 61°04' E 005°19'816.8
2018-Jun-15 20:30N 61°06' E 005°36'918.0
2018-Jun-15 20:00N 61°08' E 005°54'918.3
2018-Jun-15 19:30N 61°07' E 006°13'917.6
2018-Jun-15 19:00N 61°07' E 006°30'713.4
2018-Jun-15 18:30N 61°11' E 006°41'815.8
2018-Jun-15 18:00N 61°07' E 006°56'815.9
2018-Jun-15 17:30N 60°60' E 007°03'713.7
2018-Jun-15 16:58N 60°53' E 007°09'2 3.3
2018-Jun-15 16:30N 60°52' E 007°07'0 0.0
2018-Jun-15 16:00N 60°52' E 007°07'0 0.0
2018-Jun-15 15:30N 60°52' E 007°07'0 0.0
2018-Jun-15 15:00N 60°52' E 007°07'0 0.0
2018-Jun-15 14:30N 60°52' E 007°07'0 0.0
2018-Jun-15 14:00N 60°52' E 007°07'0 0.0
2018-Jun-15 13:30N 60°52' E 007°07'0 0.0
2018-Jun-15 13:00N 60°52' E 007°07'0 0.0
2018-Jun-15 12:30N 60°52' E 007°07'0 0.0
2018-Jun-15 12:00N 60°52' E 007°07'0 0.0
2018-Jun-15 11:30N 60°52' E 007°07'0 0.0
2018-Jun-15 11:00N 60°52' E 007°07'0 0.0
2018-Jun-15 10:30N 60°52' E 007°07'0 0.0
2018-Jun-15 10:00N 60°52' E 007°07'0 0.0
2018-Jun-15 09:30N 60°52' E 007°07'0 0.0
2018-Jun-15 08:57N 60°52' E 007°07'0 0.0
2018-Jun-15 08:30N 60°52' E 007°07'0 0.0
2018-Jun-15 08:00N 60°52' E 007°07'0 0.0
2018-Jun-15 07:30N 60°52' E 007°07'0 0.0
2018-Jun-15 07:00N 60°52' E 007°07'0 0.0
2018-Jun-15 06:30N 60°52' E 007°07'0 0.0
2018-Jun-15 06:00N 60°52' E 007°07'0 0.0
2018-Jun-15 05:30N 60°52' E 007°07'0 0.0
2018-Jun-15 05:00N 60°52' E 007°07'1 1.6
2018-Jun-15 04:30N 60°52' E 007°08'4 8.8
2018-Jun-15 04:00N 60°57' E 007°09'5 9.2
2018-Jun-15 03:30N 61°00' E 007°03'5 9.2
2018-Jun-15 03:00N 61°05' E 007°00'5 9.4
2018-Jun-15 02:29N 61°08' E 006°53'5 9.3
2018-Jun-15 02:00N 61°10' E 006°45'4 8.5
2018-Jun-15 01:30N 61°10' E 006°36'5 9.2
2018-Jun-15 01:00N 61°07' E 006°30'5 9.3
2018-Jun-15 00:29N 61°06' E 006°20'5 9.5
2018-Jun-15 00:00N 61°08' E 006°11'5 9.6
2018-Jun-14 23:28N 61°08' E 006°01'5 9.9
2018-Jun-14 23:00N 61°08' E 005°51'5 9.9
2018-Jun-14 22:30N 61°07' E 005°41'510.0
2018-Jun-14 22:00N 61°05' E 005°32'5 9.6
2018-Jun-14 21:30N 61°04' E 005°22'510.0
2018-Jun-14 21:00N 61°06' E 005°13'5 9.2
2018-Jun-14 20:30N 61°05' E 005°03'510.1
2018-Jun-14 19:59N 61°02' E 004°55'611.7
2018-Jun-14 19:30N 60°59' E 004°45'713.1
2018-Jun-14 18:59N 60°53' E 004°40'510.0
2018-Jun-14 18:30N 60°48' E 004°44'510.0
2018-Jun-14 18:00N 60°44' E 004°48'510.0
2018-Jun-14 17:30N 60°39' E 004°52'510.0
2018-Jun-14 17:00N 60°34' E 004°55'510.1
2018-Jun-14 16:30N 60°30' E 004°59'510.4
2018-Jun-14 16:00N 60°25' E 005°04'5 9.7
2018-Jun-14 15:30N 60°24' E 005°14'2 4.6
2018-Jun-14 14:59N 60°23' E 005°18'0 0.0
2018-Jun-14 14:29N 60°23' E 005°18'0 0.0
2018-Jun-14 13:59N 60°23' E 005°18'0 0.0
2018-Jun-14 13:29N 60°23' E 005°18'0 0.0
2018-Jun-14 12:59N 60°23' E 005°18'0 0.0
2018-Jun-14 12:29N 60°23' E 005°18'0 0.0
2018-Jun-14 11:59N 60°23' E 005°18'0 0.0
2018-Jun-14 11:29N 60°23' E 005°18'0 0.0
2018-Jun-14 10:59N 60°23' E 005°18'0 0.0
2018-Jun-14 10:29N 60°23' E 005°18'0 0.0
2018-Jun-14 09:59N 60°23' E 005°18'0 0.0
2018-Jun-14 09:29N 60°23' E 005°18'0 0.0
2018-Jun-14 08:59N 60°23' E 005°18'0 0.0
2018-Jun-14 08:29N 60°23' E 005°18'0 0.0
2018-Jun-14 07:59N 60°23' E 005°18'0 0.0
2018-Jun-14 07:29N 60°23' E 005°18'0 0.0
2018-Jun-14 06:59N 60°23' E 005°18'0 0.0
2018-Jun-14 06:29N 60°23' E 005°18'0 0.0
2018-Jun-14 05:59N 60°23' E 005°18'0 0.3
2018-Jun-14 05:30N 60°24' E 005°18'  

Dump ship's entire track history